createdAt,value
2022-10-28T12:32:31.135Z,2.60
2022-10-28T12:35:06.220Z,2.97
2022-10-28T12:38:02.704Z,2.60
2022-10-28T12:40:40.524Z,2.70
2022-10-28T12:43:20.654Z,2.53
2022-10-28T12:45:48.880Z,2.60
2022-10-28T12:48:33.886Z,2.60
2022-10-28T12:51:16.460Z,2.90
2022-10-28T12:53:54.847Z,2.60
2022-10-28T12:56:28.383Z,2.35
2022-10-28T12:59:00.396Z,2.42
2022-10-28T13:01:30.741Z,2.60
2022-10-28T13:03:57.542Z,2.60
2022-10-28T13:06:45.116Z,2.25
2022-10-28T13:09:37.957Z,3.13
2022-10-28T13:12:27.408Z,2.38
2022-10-28T13:14:56.889Z,2.67
2022-10-28T13:17:32.559Z,2.58
2022-10-28T13:20:23.842Z,2.25
2022-10-28T13:22:55.503Z,2.40
2022-10-28T13:25:46.732Z,2.60
2022-10-28T13:28:15.583Z,2.40
2022-10-28T13:31:00.128Z,2.45
2022-10-28T13:33:29.389Z,2.22
2022-10-28T13:36:10.606Z,2.25
2022-10-28T13:38:38.604Z,2.50
2022-10-28T13:41:05.081Z,2.35
2022-10-28T13:43:49.922Z,2.53
2022-10-28T13:46:54.434Z,2.38
2022-10-28T13:52:23.415Z,1.83
2022-10-28T13:54:58.813Z,2.50
2022-10-28T13:57:31.249Z,2.42
2022-10-28T14:00:23.693Z,2.80
2022-10-28T14:03:04.006Z,2.10
2022-10-28T14:05:33.430Z,2.55
2022-10-28T14:08:05.890Z,2.63
2022-10-28T14:10:40.134Z,2.17
2022-10-28T14:13:21.657Z,2.70
2022-10-28T14:15:49.719Z,2.50
2022-10-28T14:21:04.046Z,2.30
2022-10-28T14:23:31.061Z,2.35
2022-10-28T14:26:05.405Z,2.08
2022-10-28T14:28:32.044Z,2.28
2022-10-28T14:31:07.883Z,2.10
2022-10-28T14:33:43.510Z,2.45
2022-10-28T14:36:21.828Z,2.67
2022-10-28T14:39:03.637Z,2.40
2022-10-28T14:42:04.450Z,2.30
2022-10-28T14:44:38.271Z,2.47
2022-10-28T14:49:39.716Z,2.47
2022-10-28T14:52:17.812Z,2.50
2022-10-28T14:54:55.491Z,2.80
2022-10-28T14:57:30.912Z,2.90
2022-10-28T15:00:10.634Z,3.63
2022-10-28T15:02:38.444Z,3.88
2022-10-28T15:05:05.035Z,2.88
2022-10-28T15:07:37.870Z,3.45
2022-10-28T15:10:26.238Z,2.55
2022-10-28T15:12:55.759Z,16.73
2022-10-28T15:15:29.408Z,10.20
2022-10-28T15:17:56.708Z,10.38
2022-10-28T15:20:32.672Z,5.97
2022-10-28T15:23:23.347Z,4.40
2022-10-28T15:26:14.457Z,4.28
2022-10-28T15:28:43.945Z,3.97
2022-10-28T15:31:10.461Z,3.30
2022-10-28T15:33:45.375Z,3.90
2022-10-28T15:36:17.583Z,3.20
2022-10-28T15:38:46.542Z,3.40
2022-10-28T15:41:22.574Z,3.50
2022-10-28T15:43:58.899Z,3.25
2022-10-28T15:46:26.250Z,3.30
2022-10-28T15:48:54.056Z,3.40
2022-10-28T15:51:21.827Z,4.15
2022-10-28T15:53:53.880Z,6.38
2022-10-28T15:56:21.269Z,9.15
2022-10-28T15:59:17.406Z,7.90
2022-10-28T16:01:44.171Z,10.18
2022-10-28T16:04:22.914Z,14.90
2022-10-28T16:07:08.860Z,16.67
2022-10-28T16:09:42.693Z,9.98
2022-10-28T16:12:16.373Z,7.25
2022-10-28T16:14:45.586Z,4.70
2022-10-28T16:17:12.642Z,4.20
2022-10-28T16:19:43.904Z,4.70
2022-10-28T16:22:14.464Z,4.15
2022-10-28T16:24:41.821Z,4.85
2022-10-28T16:27:18.813Z,6.50
2022-10-28T16:29:45.846Z,5.95
2022-10-28T16:32:20.602Z,6.72
2022-10-28T16:34:49.202Z,9.18
2022-10-28T16:37:23.245Z,11.65
2022-10-28T16:39:50.563Z,11.88
2022-10-28T16:42:18.468Z,10.88
2022-10-28T16:44:45.214Z,10.27
2022-10-28T16:47:17.399Z,7.82
2022-10-28T16:49:43.932Z,7.10
2022-10-28T16:52:16.043Z,7.50
2022-10-28T16:54:45.106Z,5.03
2022-10-28T16:57:11.572Z,5.20
2022-10-28T16:59:38.171Z,5.18
2022-10-28T17:02:13.952Z,5.05
2022-10-28T17:04:42.595Z,6.20
2022-10-28T17:07:13.532Z,5.80
2022-10-28T17:09:39.960Z,5.65
2022-10-28T17:12:06.700Z,5.50
2022-10-28T17:14:33.233Z,5.85
2022-10-28T17:16:59.650Z,4.78
2022-10-28T17:19:26.145Z,4.10
2022-10-28T17:21:52.599Z,3.80
2022-10-28T17:24:20.372Z,4.28
2022-10-28T17:26:47.248Z,4.30
2022-10-28T17:29:14.026Z,3.80
2022-10-28T17:31:40.766Z,3.80
2022-10-28T17:34:07.205Z,3.35
2022-10-28T17:36:36.438Z,6.68
2022-10-28T17:39:03.007Z,7.07
2022-10-28T17:41:29.509Z,5.50
2022-10-28T17:43:56.016Z,4.70
2022-10-28T17:46:22.969Z,4.50
2022-10-28T17:48:51.772Z,4.10
2022-10-28T17:51:20.912Z,5.10
2022-10-28T17:53:47.812Z,4.63
2022-10-28T17:56:16.682Z,5.28
2022-10-28T17:58:43.137Z,4.55
2022-10-28T18:01:10.866Z,4.78
2022-10-28T18:03:38.900Z,5.22
2022-10-28T18:06:08.014Z,5.20
2022-10-28T18:08:37.884Z,5.00
2022-10-28T18:11:06.338Z,5.43
2022-10-28T18:13:35.115Z,5.80
2022-10-28T18:16:05.652Z,6.32
2022-10-28T18:18:34.977Z,7.15
2022-10-28T18:21:03.821Z,7.60
2022-10-28T18:23:33.064Z,8.10
2022-10-28T18:25:59.482Z,10.43
2022-10-28T18:28:29.783Z,10.68
2022-10-28T18:31:05.323Z,10.85
2022-10-28T18:33:33.008Z,10.18
2022-10-28T18:36:02.843Z,11.10
2022-10-28T18:38:31.557Z,10.35
2022-10-28T18:40:58.182Z,9.90
2022-10-28T18:43:24.805Z,9.30
2022-10-28T18:45:51.330Z,9.50
2022-10-28T18:48:18.455Z,9.23
2022-10-28T18:50:54.833Z,10.75
2022-10-28T18:53:21.763Z,10.60
2022-10-28T18:55:48.232Z,10.73
2022-10-28T18:58:15.219Z,9.85
2022-10-28T19:00:42.135Z,8.75
2022-10-28T19:03:26.915Z,9.45
2022-10-28T19:05:54.948Z,9.95
2022-10-28T19:08:21.433Z,15.07
2022-10-28T19:10:48.713Z,12.70
2022-10-28T19:13:15.209Z,13.43
2022-10-28T19:15:48.643Z,14.00
2022-10-28T19:18:19.234Z,16.40
2022-10-28T19:20:46.235Z,24.27
2022-10-28T19:23:12.814Z,15.35
2022-10-28T19:25:39.315Z,67.25
2022-10-28T19:28:05.836Z,124.53
2022-10-28T19:30:34.433Z,122.32
2022-10-28T19:33:03.235Z,30.83
2022-10-28T19:35:29.670Z,56.22
2022-10-28T19:37:56.418Z,46.50
2022-10-28T19:40:22.907Z,39.35
2022-10-28T19:45:24.987Z,28.45
2022-10-28T19:47:51.567Z,25.77
2022-10-28T19:50:18.494Z,22.30
2022-10-28T19:52:45.212Z,20.27
2022-10-28T19:55:14.910Z,16.73
2022-10-28T19:57:41.708Z,16.10
2022-10-28T20:00:09.461Z,15.55
2022-10-28T20:02:36.109Z,13.93
2022-10-28T20:05:02.981Z,13.93
2022-10-28T20:07:29.450Z,15.10
2022-10-28T20:12:29.068Z,15.30
2022-10-28T20:14:57.940Z,15.27
2022-10-28T20:17:24.440Z,14.27
2022-10-28T20:19:50.875Z,13.77
2022-10-28T20:22:17.416Z,14.18
2022-10-28T20:24:44.174Z,14.10
2022-10-28T20:27:10.704Z,12.95
2022-10-28T20:29:37.604Z,12.23
2022-10-28T20:32:09.095Z,11.90
2022-10-28T20:34:35.815Z,11.73
2022-10-28T20:37:02.281Z,12.40
2022-10-28T20:39:28.796Z,12.00
2022-10-28T20:41:55.335Z,12.32
2022-10-28T20:44:21.969Z,12.68
2022-10-28T20:46:49.040Z,12.88
2022-10-28T20:49:15.798Z,13.10
2022-10-28T20:51:44.824Z,12.70
2022-10-28T20:54:11.610Z,12.05
2022-10-28T20:56:40.416Z,12.55
2022-10-28T20:59:07.258Z,12.75
2022-10-28T21:01:36.515Z,14.88
2022-10-28T21:04:05.992Z,14.18
2022-10-28T21:06:33.474Z,15.27
2022-10-28T21:09:00.312Z,14.63
2022-10-28T21:11:28.216Z,18.73
2022-10-28T21:13:58.409Z,19.58
2022-10-28T21:16:29.313Z,17.88
2022-10-28T21:18:56.277Z,19.60
2022-10-28T21:21:24.130Z,19.60
2022-10-28T21:23:51.242Z,20.38
2022-10-28T21:26:17.890Z,17.13
2022-10-28T21:28:48.148Z,17.05
2022-10-28T21:31:18.030Z,16.75
2022-10-28T21:33:44.853Z,17.20
2022-10-28T21:36:14.666Z,16.10
2022-10-28T21:38:41.106Z,15.65
2022-10-28T21:41:15.187Z,15.88
2022-10-28T21:43:44.083Z,15.80
2022-10-28T21:46:11.633Z,17.00
2022-10-28T21:48:38.548Z,17.88
2022-10-28T21:51:10.104Z,17.42
2022-10-28T21:53:41.764Z,17.67
2022-10-28T21:56:16.277Z,17.55
2022-10-28T21:58:44.216Z,17.08
2022-10-28T22:01:13.597Z,16.85
2022-10-28T22:03:40.278Z,17.30
2022-10-28T22:06:07.549Z,17.65
2022-10-28T22:08:36.509Z,17.15
2022-10-28T22:11:12.397Z,16.55
2022-10-28T22:13:38.878Z,17.02
2022-10-28T22:16:11.010Z,17.92
2022-10-28T22:18:37.952Z,17.13
2022-10-28T22:21:12.434Z,16.63
2022-10-28T22:23:42.072Z,17.30
2022-10-28T22:26:11.437Z,17.35
2022-10-28T22:28:38.285Z,16.27
2022-10-28T22:31:07.630Z,17.38
2022-10-28T22:33:34.418Z,15.60
2022-10-28T22:36:04.094Z,18.55
2022-10-28T22:38:30.570Z,17.98
2022-10-28T22:41:16.904Z,19.52
2022-10-28T22:43:50.338Z,17.15
2022-10-28T22:46:18.126Z,13.18
2022-10-28T22:48:45.566Z,11.98
2022-10-28T22:51:12.357Z,12.50
2022-10-28T22:53:39.528Z,13.23
2022-10-28T22:56:07.988Z,13.60
2022-10-28T22:58:35.048Z,13.93
2022-10-28T23:01:06.981Z,13.98
2022-10-28T23:03:41.878Z,14.43
2022-10-28T23:06:09.798Z,13.93
2022-10-28T23:08:39.058Z,14.77
2022-10-28T23:11:09.513Z,15.65
2022-10-28T23:16:04.689Z,14.77
2022-10-28T23:18:31.396Z,13.32
2022-10-28T23:21:06.123Z,13.45
2022-10-28T23:23:34.858Z,15.50
2022-10-28T23:26:01.367Z,15.88
2022-10-28T23:28:28.136Z,18.17
2022-10-28T23:30:54.600Z,18.85
2022-10-28T23:33:21.009Z,19.13
2022-10-28T23:35:55.115Z,18.08
2022-10-28T23:38:24.401Z,17.75
2022-10-28T23:41:02.934Z,17.23
2022-10-28T23:43:30.621Z,15.18
2022-10-28T23:45:57.788Z,15.38
2022-10-28T23:48:25.771Z,14.90
2022-10-28T23:50:53.236Z,16.02
2022-10-28T23:53:22.612Z,15.50
2022-10-28T23:55:53.239Z,15.02
2022-10-28T23:58:21.438Z,11.82
